Time;durP1;ratioP1;P1;durP2;ratioP2;P2;SDS_P1;SDS_P2;PMS_P1;PMS_P2;Temp;Humidity;BMP_temperature;BMP_pressure;BME280_temperature;BME280_humidity;BME280_pressure;Samples;Min_cycle;Max_cycle;Signal;HPM_P1;HPM_P2
2022/01/13 00:01:42;;;;;;;49.13;29.43;;;;;;;;;;5035808;28;20426;-52
2022/01/13 00:04:10;;;;;;;53.53;29.97;;;;;;;;;;5035626;28;20402;-52
2022/01/13 00:06:37;;;;;;;47.33;26.30;;;;;;;;;;5035605;28;20832;-52
2022/01/13 00:09:04;;;;;;;52.83;28.57;;;;;;;;;;5035601;28;20396;-53
2022/01/13 00:11:30;;;;;;;56.13;30.67;;;;;;;;;;5035434;28;20415;-54
2022/01/13 00:16:44;;;;;;;60.20;30.73;;;;;;;;;;5035440;28;20573;-55
2022/01/13 00:21:58;;;;;;;56.93;29.60;;;;;;;;;;5035336;28;20418;-53
2022/01/13 00:24:24;;;;;;;54.63;30.70;;;;;;;;;;5035570;28;20741;-52
2022/01/13 00:26:52;;;;;;;52.57;29.30;;;;;;;;;;5035622;28;20395;-51
2022/01/13 00:29:24;;;;;;;52.97;29.10;;;;;;;;;;5035282;28;20395;-51
2022/01/13 00:31:50;;;;;;;63.10;32.00;;;;;;;;;;5034913;28;20379;-50
2022/01/13 00:34:16;;;;;;;61.20;32.53;;;;;;;;;;5035203;28;20816;-53
2022/01/13 00:36:43;;;;;;;59.03;30.97;;;;;;;;;;5034962;28;20429;-52
2022/01/13 00:39:10;;;;;;;60.07;32.37;;;;;;;;;;5035223;28;20488;-54
2022/01/13 00:41:36;;;;;;;51.80;29.60;;;;;;;;;;5033500;28;20489;-52
2022/01/13 00:44:04;;;;;;;48.83;26.90;;;;;;;;;;5034943;28;20401;-52
2022/01/13 00:46:42;;;;;;;59.53;30.27;;;;;;;;;;5034181;28;20402;-53
2022/01/13 00:49:08;;;;;;;58.77;30.33;;;;;;;;;;5033421;28;20399;-51
2022/01/13 00:51:34;;;;;;;56.80;28.77;;;;;;;;;;5034360;28;20506;-51
2022/01/13 00:54:05;;;;;;;50.43;27.50;;;;;;;;;;5034477;28;20398;-53
2022/01/13 00:56:32;;;;;;;52.83;30.63;;;;;;;;;;5034874;28;20427;-51
2022/01/13 00:58:59;;;;;;;67.03;29.80;;;;;;;;;;5034763;28;20403;-54
2022/01/13 01:01:25;;;;;;;54.03;29.87;;;;;;;;;;5034558;28;20453;-54
2022/01/13 01:03:51;;;;;;;57.10;29.17;;;;;;;;;;5033125;28;20445;-53
2022/01/13 01:06:17;;;;;;;53.57;28.60;;;;;;;;;;5034505;28;20453;-51
2022/01/13 01:08:43;;;;;;;51.10;29.17;;;;;;;;;;5034790;28;20414;-52
2022/01/13 01:11:10;;;;;;;51.07;28.20;;;;;;;;;;5034277;28;20919;-52
2022/01/13 01:13:38;;;;;;;57.47;31.43;;;;;;;;;;5034494;28;20460;-52
2022/01/13 01:16:07;;;;;;;63.13;30.07;;;;;;;;;;5034244;28;20406;-52
2022/01/13 01:21:31;;;;;;;49.53;28.70;;;;;;;;;;5022065;28;20465;-78
2022/01/13 01:29:08;;;;;;;52.30;27.20;;;;;;;;;;5036930;28;20396;-77
2022/01/13 01:31:37;;;;;;;53.77;26.87;;;;;;;;;;5036722;28;20402;-78
2022/01/13 01:36:48;;;;;;;49.23;26.60;;;;;;;;;;5017148;28;20427;-78
2022/01/13 01:39:14;;;;;;;59.37;31.27;;;;;;;;;;5021472;28;20478;-77
2022/01/13 01:41:44;;;;;;;52.27;30.10;;;;;;;;;;5016062;28;20420;-78
2022/01/13 01:44:12;;;;;;;51.83;27.90;;;;;;;;;;5016916;28;20402;-78
2022/01/13 01:46:39;;;;;;;60.10;29.30;;;;;;;;;;5016676;28;20493;-78
2022/01/13 01:49:17;;;;;;;46.13;26.93;;;;;;;;;;5016920;28;20927;-78
2022/01/13 01:51:45;;;;;;;53.93;27.80;;;;;;;;;;5017327;28;20380;-78
2022/01/13 01:54:11;;;;;;;57.70;29.07;;;;;;;;;;5016618;28;20396;-77
2022/01/13 01:56:40;;;;;;;57.13;27.67;;;;;;;;;;5016008;28;20423;-78
2022/01/13 01:59:12;;;;;;;54.97;27.87;;;;;;;;;;5015990;28;20465;-78
2022/01/13 02:01:38;;;;;;;51.33;26.47;;;;;;;;;;5016397;28;20375;-78
2022/01/13 02:04:04;;;;;;;56.27;29.27;;;;;;;;;;5016159;28;20396;-77
2022/01/13 02:06:30;;;;;;;55.07;30.67;;;;;;;;;;5014655;28;20837;-78
2022/01/13 02:08:56;;;;;;;65.40;31.60;;;;;;;;;;5016015;28;20404;-78
2022/01/13 02:11:27;;;;;;;51.20;28.27;;;;;;;;;;5016546;28;20404;-78
2022/01/13 02:13:56;;;;;;;57.77;27.70;;;;;;;;;;5016533;28;20390;-77
2022/01/13 02:16:49;;;;;;;59.77;29.17;;;;;;;;;;5016938;28;20903;-78
2022/01/13 02:19:12;;;;;;;58.53;29.90;;;;;;;;;;5016566;28;20467;-78
2022/01/13 02:21:38;;;;;;;60.20;28.27;;;;;;;;;;5015572;28;20408;-78
2022/01/13 02:24:04;;;;;;;57.47;28.37;;;;;;;;;;5015353;28;20404;-77
2022/01/13 02:26:30;;;;;;;54.93;27.43;;;;;;;;;;5014104;28;20446;-77
2022/01/13 02:28:56;;;;;;;51.47;27.63;;;;;;;;;;5012487;28;20823;-79
2022/01/13 02:31:22;;;;;;;54.77;26.83;;;;;;;;;;5018560;28;20962;-77
2022/01/13 02:33:48;;;;;;;57.97;32.20;;;;;;;;;;5021081;28;20926;-78
2022/01/13 02:36:22;;;;;;;53.80;29.53;;;;;;;;;;5016618;28;20466;-78
2022/01/13 02:38:53;;;;;;;53.53;28.70;;;;;;;;;;5015874;28;20389;-77
2022/01/13 02:41:19;;;;;;;51.90;27.90;;;;;;;;;;5014927;28;20419;-78
2022/01/13 02:43:47;;;;;;;52.60;27.77;;;;;;;;;;5015818;28;20415;-78
2022/01/13 02:46:54;;;;;;;50.57;26.93;;;;;;;;;;5015823;28;20423;-77
2022/01/13 02:49:22;;;;;;;49.70;26.03;;;;;;;;;;5006810;28;20489;-78
2022/01/13 02:51:50;;;;;;;53.37;26.90;;;;;;;;;;5010724;28;20447;-80
2022/01/13 02:54:17;;;;;;;61.43;28.67;;;;;;;;;;5013978;28;20487;-77
2022/01/13 02:56:44;;;;;;;51.30;27.27;;;;;;;;;;5015356;28;20460;-78
2022/01/13 02:59:11;;;;;;;49.37;26.87;;;;;;;;;;5019412;28;20427;-78
2022/01/13 03:01:37;;;;;;;56.00;28.10;;;;;;;;;;5017406;28;20558;-78
2022/01/13 03:04:07;;;;;;;47.63;26.37;;;;;;;;;;5016527;28;20449;-79
2022/01/13 03:06:35;;;;;;;58.03;29.77;;;;;;;;;;5015698;28;20419;-78
2022/01/13 03:09:04;;;;;;;53.70;27.03;;;;;;;;;;5016886;28;20919;-78
2022/01/13 03:11:33;;;;;;;47.03;24.97;;;;;;;;;;5019456;28;20905;-78
2022/01/13 03:14:00;;;;;;;46.80;23.77;;;;;;;;;;5019310;28;20399;-78
2022/01/13 03:16:26;;;;;;;57.87;28.07;;;;;;;;;;5018923;28;20415;-78
2022/01/13 03:18:52;;;;;;;54.43;27.13;;;;;;;;;;5018558;28;20418;-79
2022/01/13 03:21:18;;;;;;;55.93;26.93;;;;;;;;;;5019326;28;20407;-78
2022/01/13 03:23:44;;;;;;;49.03;25.43;;;;;;;;;;5019118;28;20771;-78
2022/01/13 03:26:11;;;;;;;58.37;28.03;;;;;;;;;;5018162;28;20431;-78
2022/01/13 03:28:51;;;;;;;47.20;26.40;;;;;;;;;;5019368;28;20444;-78
2022/01/13 03:31:17;;;;;;;65.07;28.80;;;;;;;;;;5019695;28;20384;-78
2022/01/13 03:33:43;;;;;;;50.83;26.93;;;;;;;;;;5019375;28;20412;-78
2022/01/13 03:36:10;;;;;;;55.20;27.63;;;;;;;;;;5019193;28;20423;-79
2022/01/13 03:38:36;;;;;;;55.17;27.80;;;;;;;;;;5018936;28;20446;-78
2022/01/13 03:41:02;;;;;;;47.87;26.73;;;;;;;;;;5019520;28;20851;-78
2022/01/13 03:43:29;;;;;;;50.20;26.73;;;;;;;;;;5018970;28;20408;-79
2022/01/13 03:45:55;;;;;;;55.00;28.20;;;;;;;;;;5017743;28;20419;-78
2022/01/13 03:48:21;;;;;;;54.83;27.50;;;;;;;;;;5019061;28;20907;-78
2022/01/13 03:50:47;;;;;;;57.27;27.83;;;;;;;;;;5018767;28;20404;-78
2022/01/13 03:53:36;;;;;;;51.70;27.70;;;;;;;;;;5018005;28;20418;-78
2022/01/13 03:56:08;;;;;;;51.97;25.80;;;;;;;;;;5017677;28;20435;-78
2022/01/13 03:58:34;;;;;;;62.10;29.73;;;;;;;;;;5018591;28;20412;-78
2022/01/13 04:01:06;;;;;;;63.40;30.90;;;;;;;;;;5017986;28;20451;-77
2022/01/13 04:03:32;;;;;;;58.37;28.03;;;;;;;;;;5018493;28;20412;-77
2022/01/13 04:06:00;;;;;;;56.70;28.57;;;;;;;;;;5018291;28;20408;-78
2022/01/13 04:08:27;;;;;;;57.77;29.27;;;;;;;;;;5018834;28;20412;-78
2022/01/13 04:10:53;;;;;;;62.57;29.13;;;;;;;;;;5018663;28;20879;-78
2022/01/13 04:13:43;;;;;;;51.77;28.07;;;;;;;;;;5017858;28;20458;-78
2022/01/13 04:16:08;;;;;;;44.30;26.87;;;;;;;;;;5018177;28;20864;-78
2022/01/13 04:18:34;;;;;;;50.67;26.70;;;;;;;;;;5017819;28;20462;-78
2022/01/13 04:21:01;;;;;;;51.70;26.53;;;;;;;;;;5013728;28;20462;-78
2022/01/13 04:23:27;;;;;;;44.37;25.37;;;;;;;;;;5018108;28;20498;-78
2022/01/13 04:25:53;;;;;;;53.67;26.90;;;;;;;;;;5022658;28;20542;-77
2022/01/13 04:28:26;;;;;;;52.63;27.60;;;;;;;;;;5039605;28;20411;-78
2022/01/13 04:31:00;;;;;;;51.57;27.67;;;;;;;;;;5038727;28;20456;-77
2022/01/13 04:33:26;;;;;;;55.27;26.30;;;;;;;;;;5034923;28;20834;-78
2022/01/13 04:35:52;;;;;;;56.47;26.97;;;;;;;;;;5018605;28;20424;-78
2022/01/13 04:38:18;;;;;;;48.87;26.07;;;;;;;;;;5017887;28;20475;-78
2022/01/13 04:40:46;;;;;;;56.43;26.93;;;;;;;;;;5018214;28;20447;-76
2022/01/13 04:43:13;;;;;;;50.00;27.13;;;;;;;;;;5022677;28;20983;-77
2022/01/13 04:45:40;;;;;;;55.20;28.47;;;;;;;;;;5020380;28;20923;-78
2022/01/13 04:48:06;;;;;;;56.50;27.30;;;;;;;;;;5017690;28;20407;-78
2022/01/13 04:50:32;;;;;;;50.67;28.43;;;;;;;;;;5018307;28;20439;-78
2022/01/13 04:52:58;;;;;;;52.30;27.33;;;;;;;;;;5017654;28;20396;-77
2022/01/13 04:55:25;;;;;;;46.70;27.00;;;;;;;;;;5016803;28;20492;-78
2022/01/13 04:57:51;;;;;;;47.93;25.53;;;;;;;;;;5011816;28;20435;-78
2022/01/13 05:00:17;;;;;;;52.20;26.87;;;;;;;;;;5017069;28;20939;-80
2022/01/13 05:02:44;;;;;;;48.17;24.63;;;;;;;;;;5017068;28;20935;-78
2022/01/13 05:05:10;;;;;;;49.37;25.63;;;;;;;;;;5017983;28;20442;-79
2022/01/13 05:07:36;;;;;;;48.50;24.67;;;;;;;;;;5017361;28;20907;-78
2022/01/13 05:10:03;;;;;;;54.30;27.37;;;;;;;;;;5017732;28;20483;-78
2022/01/13 05:12:35;;;;;;;49.97;25.00;;;;;;;;;;5017084;28;20470;-79
2022/01/13 05:15:04;;;;;;;47.67;24.90;;;;;;;;;;5018786;28;20951;-79
2022/01/13 05:18:18;;;;;;;45.83;25.17;;;;;;;;;;5021959;23;20492;-62
2022/01/13 05:20:22;;;;;;;47.43;25.47;;;;;;;;;;5011392;28;20470;-62
2022/01/13 05:22:49;;;;;;;48.13;24.87;;;;;;;;;;5014446;28;20798;-62
2022/01/13 05:25:16;;;;;;;49.43;25.57;;;;;;;;;;5014560;28;20527;-62
2022/01/13 05:27:42;;;;;;;45.33;25.20;;;;;;;;;;5014682;28;20435;-62
2022/01/13 05:30:09;;;;;;;48.30;26.33;;;;;;;;;;5014379;28;20459;-62
2022/01/13 05:32:35;;;;;;;48.97;24.70;;;;;;;;;;5014414;28;20923;-62
2022/01/13 05:35:01;;;;;;;45.60;22.50;;;;;;;;;;5014266;28;20872;-62
2022/01/13 05:37:27;;;;;;;44.33;23.80;;;;;;;;;;5014140;28;20511;-62
2022/01/13 05:39:53;;;;;;;51.90;24.67;;;;;;;;;;5014244;28;20558;-62
2022/01/13 05:42:19;;;;;;;53.93;26.53;;;;;;;;;;5014290;28;20465;-63
2022/01/13 05:44:46;;;;;;;43.37;23.93;;;;;;;;;;5014055;28;20418;-63
2022/01/13 05:47:13;;;;;;;50.07;25.53;;;;;;;;;;5014120;28;20395;-63
2022/01/13 05:49:40;;;;;;;41.17;22.87;;;;;;;;;;5014260;28;20407;-67
2022/01/13 05:52:07;;;;;;;47.13;22.93;;;;;;;;;;5013971;28;20399;-63
2022/01/13 05:54:34;;;;;;;45.60;24.57;;;;;;;;;;5013867;28;20809;-63
2022/01/13 05:57:00;;;;;;;46.30;24.77;;;;;;;;;;5013681;28;20407;-63
2022/01/13 05:59:26;;;;;;;42.37;23.20;;;;;;;;;;5013471;28;20451;-63
2022/01/13 06:01:53;;;;;;;51.53;25.47;;;;;;;;;;5013675;28;20439;-65
2022/01/13 06:04:19;;;;;;;41.10;20.57;;;;;;;;;;5013691;28;20391;-63
2022/01/13 06:06:45;;;;;;;38.83;21.30;;;;;;;;;;5013579;28;20434;-63
2022/01/13 06:09:11;;;;;;;43.30;23.20;;;;;;;;;;5013764;28;20428;-63
2022/01/13 06:11:40;;;;;;;45.33;24.47;;;;;;;;;;5013679;28;20431;-63
2022/01/13 06:14:06;;;;;;;42.30;22.80;;;;;;;;;;5013521;28;20913;-63
2022/01/13 06:16:32;;;;;;;47.27;23.13;;;;;;;;;;5013342;28;20507;-64
2022/01/13 06:18:59;;;;;;;48.20;24.60;;;;;;;;;;5013346;28;20473;-64
2022/01/13 06:21:25;;;;;;;44.00;24.30;;;;;;;;;;5013536;28;20494;-63
2022/01/13 06:23:51;;;;;;;43.23;23.37;;;;;;;;;;5013802;28;20768;-63
2022/01/13 06:26:17;;;;;;;42.90;23.57;;;;;;;;;;5013706;28;20840;-64
2022/01/13 06:28:43;;;;;;;47.90;23.63;;;;;;;;;;5013297;28;20423;-64
2022/01/13 06:31:09;;;;;;;51.03;24.90;;;;;;;;;;5013691;28;20535;-64
2022/01/13 06:33:35;;;;;;;43.77;21.77;;;;;;;;;;5013578;28;20477;-64
2022/01/13 06:36:04;;;;;;;51.10;24.70;;;;;;;;;;5013444;28;20404;-63
2022/01/13 06:38:30;;;;;;;41.70;22.40;;;;;;;;;;5013703;28;20463;-64
2022/01/13 06:40:56;;;;;;;45.67;21.93;;;;;;;;;;5013438;28;20920;-64
2022/01/13 06:43:22;;;;;;;40.40;23.07;;;;;;;;;;5013809;28;20907;-63
2022/01/13 06:45:49;;;;;;;46.50;22.10;;;;;;;;;;5017552;28;20403;-64
2022/01/13 06:48:15;;;;;;;47.77;24.80;;;;;;;;;;5017014;28;20448;-64
2022/01/13 06:50:42;;;;;;;45.50;22.43;;;;;;;;;;5017109;28;20408;-64
2022/01/13 06:53:08;;;;;;;43.77;22.43;;;;;;;;;;5017157;28;20412;-64
2022/01/13 06:55:34;;;;;;;41.80;22.20;;;;;;;;;;5017139;28;20439;-64
2022/01/13 06:58:00;;;;;;;35.80;20.00;;;;;;;;;;5016967;28;20431;-64
2022/01/13 07:00:26;;;;;;;44.90;21.50;;;;;;;;;;5016783;28;20509;-64
2022/01/13 07:02:55;;;;;;;43.93;21.47;;;;;;;;;;5016796;28;20406;-64
2022/01/13 07:05:21;;;;;;;46.47;22.90;;;;;;;;;;5016950;28;20453;-64
2022/01/13 07:07:47;;;;;;;38.90;21.07;;;;;;;;;;5016839;28;20423;-63
2022/01/13 07:10:13;;;;;;;43.10;22.60;;;;;;;;;;5016766;28;20419;-63
2022/01/13 07:12:40;;;;;;;45.90;23.30;;;;;;;;;;5016770;28;20403;-64
2022/01/13 07:15:07;;;;;;;43.10;22.53;;;;;;;;;;5015556;28;20412;-63
2022/01/13 07:20:07;;;;;;;42.00;21.70;;;;;;;;;;5014899;28;20468;-53
2022/01/13 07:22:33;;;;;;;46.67;26.00;;;;;;;;;;5016529;28;20453;-53
2022/01/13 07:24:59;;;;;;;49.93;23.30;;;;;;;;;;5016824;28;20403;-53
2022/01/13 07:27:25;;;;;;;42.60;22.87;;;;;;;;;;5016425;28;20487;-55
2022/01/13 07:29:51;;;;;;;43.57;21.27;;;;;;;;;;5015103;28;20474;-52
2022/01/13 07:32:17;;;;;;;40.97;21.90;;;;;;;;;;5016649;28;20442;-51
2022/01/13 07:34:43;;;;;;;45.30;22.80;;;;;;;;;;5016360;28;20407;-53
2022/01/13 07:37:09;;;;;;;40.80;21.93;;;;;;;;;;5016154;28;20407;-54
2022/01/13 07:39:35;;;;;;;52.97;24.67;;;;;;;;;;5000450;28;21026;-52
2022/01/13 07:42:02;;;;;;;40.33;21.83;;;;;;;;;;5004980;28;20419;-53
2022/01/13 07:44:28;;;;;;;51.60;25.00;;;;;;;;;;5011289;28;20424;-52
2022/01/13 07:46:56;;;;;;;48.33;25.47;;;;;;;;;;4996578;28;20417;-51
2022/01/13 07:49:22;;;;;;;38.37;21.80;;;;;;;;;;5015274;28;20526;-52
2022/01/13 07:51:48;;;;;;;49.50;25.17;;;;;;;;;;5015863;28;20423;-52
2022/01/13 07:54:14;;;;;;;44.40;22.43;;;;;;;;;;5015985;28;20408;-51
2022/01/13 07:56:40;;;;;;;44.37;23.50;;;;;;;;;;4999057;28;20858;-51
2022/01/13 07:59:07;;;;;;;50.50;25.60;;;;;;;;;;5013952;28;20965;-53
2022/01/13 08:01:33;;;;;;;49.57;26.90;;;;;;;;;;5014924;28;20169;-52
2022/01/13 08:03:59;;;;;;;46.67;22.73;;;;;;;;;;5014888;28;20411;-50
2022/01/13 08:06:25;;;;;;;50.03;23.10;;;;;;;;;;5014416;28;20427;-51
2022/01/13 08:08:51;;;;;;;49.10;23.20;;;;;;;;;;5013823;28;20444;-52
2022/01/13 08:11:17;;;;;;;40.83;21.97;;;;;;;;;;5015081;28;20458;-50
2022/01/13 08:13:44;;;;;;;45.50;23.03;;;;;;;;;;5009428;28;20403;-50
2022/01/13 08:16:10;;;;;;;44.80;22.93;;;;;;;;;;5014875;28;20412;-51
2022/01/13 08:21:22;;;;;;;42.63;23.50;;;;;;;;;;5015497;28;20471;-64
2022/01/13 08:23:50;;;;;;;42.80;23.20;;;;;;;;;;5014708;28;20428;-64
2022/01/13 08:26:16;;;;;;;45.10;23.50;;;;;;;;;;5016552;28;20482;-65
2022/01/13 08:28:42;;;;;;;49.13;23.17;;;;;;;;;;5023834;28;21005;-64
2022/01/13 08:31:08;;;;;;;43.17;23.70;;;;;;;;;;5016933;28;20492;-64
2022/01/13 08:33:34;;;;;;;43.67;23.13;;;;;;;;;;5015358;28;20426;-66
2022/01/13 08:36:00;;;;;;;45.20;24.27;;;;;;;;;;5019280;28;20399;-68
2022/01/13 08:38:26;;;;;;;45.27;23.27;;;;;;;;;;5020988;28;20518;-67
2022/01/13 08:40:53;;;;;;;47.43;25.03;;;;;;;;;;5016456;28;20545;-67
2022/01/13 08:43:20;;;;;;;40.57;20.27;;;;;;;;;;5014902;28;20929;-65
2022/01/13 08:45:47;;;;;;;45.17;20.43;;;;;;;;;;5017764;28;20431;-64
2022/01/13 08:48:13;;;;;;;44.57;22.13;;;;;;;;;;5018587;28;20424;-64
2022/01/13 08:50:39;;;;;;;34.60;21.37;;;;;;;;;;5016824;28;20502;-64
2022/01/13 08:53:05;;;;;;;40.37;22.80;;;;;;;;;;5015347;28;20447;-66
2022/01/13 08:55:32;;;;;;;42.90;20.83;;;;;;;;;;5015510;28;20443;-64
2022/01/13 08:57:58;;;;;;;40.43;21.27;;;;;;;;;;5001181;28;20947;-66
2022/01/13 09:00:24;;;;;;;39.93;22.20;;;;;;;;;;5015527;28;20456;-66
2022/01/13 09:02:50;;;;;;;38.67;21.63;;;;;;;;;;5016741;28;20800;-66
2022/01/13 09:05:17;;;;;;;43.63;22.17;;;;;;;;;;5020385;28;20442;-65
2022/01/13 09:07:43;;;;;;;39.90;21.50;;;;;;;;;;5010244;28;20768;-66
2022/01/13 09:10:09;;;;;;;46.80;21.43;;;;;;;;;;5000839;28;20432;-66
2022/01/13 09:12:35;;;;;;;43.63;23.43;;;;;;;;;;5014117;28;20427;-67
2022/01/13 09:15:15;;;;;;;42.73;23.17;;;;;;;;;;5013711;28;20441;-67
2022/01/13 09:17:43;;;;;;;40.13;22.30;;;;;;;;;;5015117;28;20507;-67
2022/01/13 09:20:10;;;;;;;54.03;23.77;;;;;;;;;;5014085;28;20463;-67
2022/01/13 09:22:36;;;;;;;50.43;25.27;;;;;;;;;;5022361;28;20489;-66
2022/01/13 09:25:03;;;;;;;49.40;24.07;;;;;;;;;;5014000;28;20428;-66
2022/01/13 09:27:29;;;;;;;45.28;23.63;;;;;;;;;;5012033;28;20473;-66
2022/01/13 09:29:55;;;;;;;49.25;27.27;;;;;;;;;;5011486;28;20423;-66
2022/01/13 09:32:22;;;;;;;45.40;23.77;;;;;;;;;;5014128;28;20172;-64
2022/01/13 09:34:48;;;;;;;43.50;23.03;;;;;;;;;;5013726;28;20404;-62
2022/01/13 09:37:16;;;;;;;44.53;20.87;;;;;;;;;;5014301;28;20484;-63
2022/01/13 09:39:42;;;;;;;34.40;22.37;;;;;;;;;;5013632;28;20451;-63
2022/01/13 09:42:10;;;;;;;40.50;21.77;;;;;;;;;;5015846;28;20516;-65
2022/01/13 09:44:36;;;;;;;37.57;19.87;;;;;;;;;;5014901;28;20411;-64
2022/01/13 09:47:04;;;;;;;36.97;20.90;;;;;;;;;;5013665;28;20454;-66
2022/01/13 09:49:31;;;;;;;60.70;32.10;;;;;;;;;;5024133;28;20480;-64
2022/01/13 09:51:57;;;;;;;39.43;21.90;;;;;;;;;;5019624;28;20418;-61
2022/01/13 09:54:23;;;;;;;37.53;20.03;;;;;;;;;;5013416;28;20506;-62
2022/01/13 09:56:49;;;;;;;38.63;19.47;;;;;;;;;;5013382;28;20486;-61
2022/01/13 09:59:15;;;;;;;42.40;23.60;;;;;;;;;;5023575;28;20869;-65
2022/01/13 10:01:41;;;;;;;45.80;23.30;;;;;;;;;;5013910;28;20888;-66
2022/01/13 10:04:07;;;;;;;34.87;21.37;;;;;;;;;;5013251;28;20498;-67
2022/01/13 10:06:41;;;;;;;43.67;21.60;;;;;;;;;;5012178;28;20431;-65
2022/01/13 10:09:07;;;;;;;41.13;21.20;;;;;;;;;;5013075;28;20434;-63
2022/01/13 10:11:37;;;;;;;44.57;23.30;;;;;;;;;;5012249;28;20426;-63
2022/01/13 10:16:22;;;;;;;39.57;21.20;;;;;;;;;;5012500;28;20408;-62
2022/01/13 10:16:59;;;;;;;44.17;22.27;;;;;;;;;;5012635;28;20443;-63
2022/01/13 10:19:34;;;;;;;40.60;22.80;;;;;;;;;;5011444;28;20470;-62
2022/01/13 10:22:08;;;;;;;41.17;21.27;;;;;;;;;;5013842;28;20482;-65
2022/01/13 10:24:39;;;;;;;43.80;22.60;;;;;;;;;;5014751;28;20463;-63
2022/01/13 10:27:05;;;;;;;44.10;23.60;;;;;;;;;;5011859;28;20415;-65
2022/01/13 10:29:41;;;;;;;40.80;20.90;;;;;;;;;;5012505;28;20475;-66
2022/01/13 10:32:09;;;;;;;40.27;22.20;;;;;;;;;;5012343;28;20749;-65
2022/01/13 10:34:36;;;;;;;43.87;23.83;;;;;;;;;;5012073;28;20423;-66
2022/01/13 10:37:05;;;;;;;43.40;22.83;;;;;;;;;;5012279;28;20832;-49
2022/01/13 10:39:49;;;;;;;39.83;23.40;;;;;;;;;;5010813;28;20539;-50
2022/01/13 10:45:04;;;;;;;42.73;22.00;;;;;;;;;;5009332;28;20404;-59
2022/01/13 10:47:30;;;;;;;39.47;21.40;;;;;;;;;;5015704;28;20423;-64
2022/01/13 10:50:13;;;;;;;37.07;21.70;;;;;;;;;;5035475;28;20492;-64
2022/01/13 10:52:39;;;;;;;43.80;22.00;;;;;;;;;;5034347;28;20466;-63
2022/01/13 10:55:22;;;;;;;38.50;20.60;;;;;;;;;;5035366;28;20406;-63
2022/01/13 10:57:49;;;;;;;36.47;21.27;;;;;;;;;;5008256;28;20423;-65
2022/01/13 11:00:17;;;;;;;35.20;21.40;;;;;;;;;;5011763;28;20531;-61
2022/01/13 11:03:04;;;;;;;37.23;20.37;;;;;;;;;;5012023;28;20504;-61
2022/01/13 11:05:31;;;;;;;34.50;20.75;;;;;;;;;;5016146;28;20426;-51
2022/01/13 11:07:57;;;;;;;42.00;23.00;;;;;;;;;;5013504;28;20208;-64
2022/01/13 11:10:25;;;;;;;35.70;20.30;;;;;;;;;;5012497;28;20407;-63
2022/01/13 11:12:59;;;;;;;34.13;17.40;;;;;;;;;;5011541;28;20459;-66
2022/01/13 11:15:26;;;;;;;35.80;17.47;;;;;;;;;;5011866;28;20904;-66
2022/01/13 11:17:56;;;;;;;28.43;16.30;;;;;;;;;;5007698;28;20466;-66
2022/01/13 11:20:22;;;;;;;32.17;17.00;;;;;;;;;;5011880;28;20470;-68
2022/01/13 11:22:51;;;;;;;34.30;18.13;;;;;;;;;;5011054;28;20424;-66
2022/01/13 11:25:18;;;;;;;33.30;18.27;;;;;;;;;;5012525;28;20396;-64
2022/01/13 11:27:44;;;;;;;28.30;16.67;;;;;;;;;;5010265;28;20506;-62
2022/01/13 11:30:13;;;;;;;29.90;16.77;;;;;;;;;;5013286;28;20415;-63
2022/01/13 11:32:42;;;;;;;33.47;16.77;;;;;;;;;;5020842;28;20799;-67
2022/01/13 11:35:12;;;;;;;27.63;16.42;;;;;;;;;;5015279;28;20899;-61
2022/01/13 11:37:39;;;;;;;27.37;14.80;;;;;;;;;;5015465;28;20172;-61
2022/01/13 11:40:07;;;;;;;27.63;15.67;;;;;;;;;;5015697;28;20443;-64
2022/01/13 11:42:45;;;;;;;30.00;15.93;;;;;;;;;;5017483;28;20451;-63
2022/01/13 11:45:13;;;;;;;22.50;14.30;;;;;;;;;;5011459;28;20787;-65
2022/01/13 11:47:39;;;;;;;25.47;13.80;;;;;;;;;;5016866;28;20541;-64
2022/01/13 11:50:20;;;;;;;23.87;14.53;;;;;;;;;;5033151;28;20411;-67
2022/01/13 11:52:52;;;;;;;22.27;13.80;;;;;;;;;;5021195;28;20815;-59
2022/01/13 11:55:24;;;;;;;23.08;13.00;;;;;;;;;;5015801;28;20466;-62
2022/01/13 11:57:50;;;;;;;25.00;14.87;;;;;;;;;;5015215;28;20180;-54
2022/01/13 12:00:24;;;;;;;23.23;13.57;;;;;;;;;;5014471;28;20452;-64
2022/01/13 12:02:51;;;;;;;26.50;14.50;;;;;;;;;;5015206;28;20416;-65
2022/01/13 12:05:24;;;;;;;29.83;15.97;;;;;;;;;;5014381;28;20512;-51
2022/01/13 12:07:53;;;;;;;25.08;15.75;;;;;;;;;;5013370;28;20776;-58
2022/01/13 12:10:25;;;;;;;28.13;16.90;;;;;;;;;;5006118;28;20177;-63
2022/01/13 12:12:52;;;;;;;22.17;14.27;;;;;;;;;;5013892;28;20408;-50
2022/01/13 12:15:31;;;;;;;26.57;15.67;;;;;;;;;;5014224;28;20424;-48
2022/01/13 12:18:04;;;;;;;24.93;14.20;;;;;;;;;;5003154;28;20454;-51
2022/01/13 12:21:08;;;;;;;20.70;12.23;;;;;;;;;;5019395;28;20447;-50
2022/01/13 12:23:37;;;;;;;27.43;14.57;;;;;;;;;;5012837;28;20412;-50
2022/01/13 12:26:03;;;;;;;22.67;12.80;;;;;;;;;;5014321;28;20443;-52
2022/01/13 12:28:29;;;;;;;31.30;15.40;;;;;;;;;;5013954;28;20431;-51
2022/01/13 12:30:55;;;;;;;22.53;13.93;;;;;;;;;;5014463;28;20411;-50
2022/01/13 12:33:31;;;;;;;28.17;14.87;;;;;;;;;;5013707;28;20404;-52
2022/01/13 12:35:57;;;;;;;26.53;16.03;;;;;;;;;;5011271;28;20765;-48
2022/01/13 12:38:23;;;;;;;41.17;19.83;;;;;;;;;;5024782;28;21320;-49
2022/01/13 12:41:00;;;;;;;32.90;18.00;;;;;;;;;;5004890;28;20539;-51
2022/01/13 12:46:03;;;;;;;33.70;16.97;;;;;;;;;;5014585;28;20407;-52
2022/01/13 12:48:30;;;;;;;40.40;20.43;;;;;;;;;;5013573;28;20956;-50
2022/01/13 12:50:57;;;;;;;34.10;18.83;;;;;;;;;;5018666;28;20466;-49
2022/01/13 12:53:25;;;;;;;30.93;18.33;;;;;;;;;;5013027;28;20434;-52
2022/01/13 12:55:56;;;;;;;38.17;19.27;;;;;;;;;;5000955;28;20420;-49
2022/01/13 12:58:23;;;;;;;32.30;19.00;;;;;;;;;;5013265;28;20789;-50
2022/01/13 13:00:49;;;;;;;40.27;19.70;;;;;;;;;;5014037;28;20494;-49
2022/01/13 13:03:15;;;;;;;35.67;17.80;;;;;;;;;;5014041;28;20780;-50
2022/01/13 13:05:45;;;;;;;44.37;20.90;;;;;;;;;;5014521;28;20454;-48
2022/01/13 13:08:13;;;;;;;38.40;17.67;;;;;;;;;;5015588;28;20509;-51
2022/01/13 13:10:43;;;;;;;37.87;19.00;;;;;;;;;;5015128;28;20434;-48
2022/01/13 13:13:10;;;;;;;33.47;18.60;;;;;;;;;;5015095;28;20443;-52
2022/01/13 13:18:02;;;;;;;33.40;18.10;;;;;;;;;;5017895;28;20455;-52
2022/01/13 13:20:28;;;;;;;34.40;17.10;;;;;;;;;;5020022;28;20482;-49
2022/01/13 13:22:56;;;;;;;38.13;18.57;;;;;;;;;;5020559;28;20447;-53
2022/01/13 13:25:26;;;;;;;31.20;16.93;;;;;;;;;;5020278;28;20400;-52
2022/01/13 13:27:52;;;;;;;27.50;17.20;;;;;;;;;;5014131;28;20424;-50
2022/01/13 13:30:18;;;;;;;28.80;15.97;;;;;;;;;;5023491;28;20414;-50
2022/01/13 13:32:51;;;;;;;38.90;17.60;;;;;;;;;;5022090;28;20447;-50
2022/01/13 13:35:18;;;;;;;30.30;17.73;;;;;;;;;;5011297;28;20502;-53
2022/01/13 13:37:47;;;;;;;38.20;18.60;;;;;;;;;;5009666;28;20458;-48
2022/01/13 13:40:23;;;;;;;32.47;18.30;;;;;;;;;;5015189;28;20458;-50
2022/01/13 13:43:02;;;;;;;35.87;17.77;;;;;;;;;;5026013;28;20481;-60
2022/01/13 13:45:28;;;;;;;33.10;18.17;;;;;;;;;;5023665;28;20827;-50
2022/01/13 13:47:58;;;;;;;32.90;18.43;;;;;;;;;;5013154;28;20432;-50
2022/01/13 13:50:24;;;;;;;34.87;16.83;;;;;;;;;;5012708;28;20420;-51
2022/01/13 13:53:05;;;;;;;34.40;18.13;;;;;;;;;;5012322;28;20897;-51
2022/01/13 13:55:32;;;;;;;28.97;16.70;;;;;;;;;;5013189;28;20439;-65
2022/01/13 13:57:58;;;;;;;31.60;17.27;;;;;;;;;;5018002;28;20508;-65
2022/01/13 14:00:26;;;;;;;38.00;20.42;;;;;;;;;;5012282;28;20855;-63
2022/01/13 14:02:53;;;;;;;39.63;20.30;;;;;;;;;;5014250;28;20173;-63
2022/01/13 14:05:24;;;;;;;31.47;17.80;;;;;;;;;;5019988;28;20471;-64
2022/01/13 14:07:50;;;;;;;33.90;17.77;;;;;;;;;;5020805;28;20469;-63
2022/01/13 14:10:23;;;;;;;30.60;16.90;;;;;;;;;;5021526;28;20817;-63
2022/01/13 14:12:57;;;;;;;39.40;16.67;;;;;;;;;;5012854;28;20436;-49
2022/01/13 14:15:30;;;;;;;27.57;16.80;;;;;;;;;;5011932;28;20562;-62
2022/01/13 14:18:08;;;;;;;31.10;15.93;;;;;;;;;;5012735;28;20438;-62
2022/01/13 14:20:36;;;;;;;28.90;16.60;;;;;;;;;;4998628;28;20785;-61
2022/01/13 14:23:04;;;;;;;31.75;18.10;;;;;;;;;;5015194;28;20966;-48
2022/01/13 14:25:34;;;;;;;119.07;52.50;;;;;;;;;;5027117;28;20545;-52
2022/01/13 14:28:05;;;;;;;31.00;18.13;;;;;;;;;;5012791;28;20439;-49
2022/01/13 14:30:33;;;;;;;36.30;18.20;;;;;;;;;;5017843;28;20451;-50
2022/01/13 14:33:14;;;;;;;29.83;17.00;;;;;;;;;;5007510;28;20431;-60
2022/01/13 14:35:40;;;;;;;36.83;18.83;;;;;;;;;;5012728;28;20419;-64
2022/01/13 14:38:16;;;;;;;33.57;18.80;;;;;;;;;;5012076;28;20986;-65
2022/01/13 14:40:42;;;;;;;29.97;16.90;;;;;;;;;;5013189;28;20450;-62
2022/01/13 14:43:17;;;;;;;34.40;17.80;;;;;;;;;;5012461;28;20403;-62
2022/01/13 14:45:43;;;;;;;30.57;17.60;;;;;;;;;;5017135;28;20797;-64
2022/01/13 14:48:09;;;;;;;35.53;17.20;;;;;;;;;;5026535;28;20443;-65
2022/01/13 14:50:35;;;;;;;31.70;17.50;;;;;;;;;;5011937;28;20435;-63
2022/01/13 14:53:01;;;;;;;34.67;19.27;;;;;;;;;;5012035;28;20424;-62